Time;durP1;ratioP1;P1;durP2;ratioP2;P2;SDS_P1;SDS_P2;PMS_P1;PMS_P2;Temp;Humidity;BMP_temperature;BMP_pressure;BME280_temperature;BME280_humidity;BME280_pressure;Samples;Min_cycle;Max_cycle;Signal;HPM_P1;HPM_P2
2023/07/21 00:01:21;;;;;;;5.5;3.3;;;;;;;;;;;;;
2023/07/21 00:03:46;;;;;;;4.3;3.2;;;;;;;;;;;;;
2023/07/21 00:06:16;;;;;;;4.9;2.9;;;;;;;;;;;;;
2023/07/21 00:08:36;;;;;;;3.9;3;;;;;;;;;;;;;
2023/07/21 00:11:05;;;;;;;4.1;3.1;;;;;;;;;;;;;
2023/07/21 00:13:30;;;;;;;4.2;3;;;;;;;;;;;;;
2023/07/21 00:15:57;;;;;;;5;3.1;;;;;;;;;;;;;
2023/07/21 00:18:22;;;;;;;3.8;3.1;;;;;;;;;;;;;
2023/07/21 00:20:49;;;;;;;3.7;2.7;;;;;;;;;;;;;
2023/07/21 00:23:14;;;;;;;3.4;2.9;;;;;;;;;;;;;
2023/07/21 00:25:39;;;;;;;4.1;3.2;;;;;;;;;;;;;
2023/07/21 00:28:05;;;;;;;3.2;2.9;;;;;;;;;;;;;
2023/07/21 00:30:31;;;;;;;3.6;3;;;;;;;;;;;;;
2023/07/21 00:32:57;;;;;;;4.8;3.1;;;;;;;;;;;;;
2023/07/21 00:35:24;;;;;;;5.7;3.2;;;;;;;;;;;;;
2023/07/21 00:37:49;;;;;;;4.2;3.2;;;;;;;;;;;;;
2023/07/21 00:40:18;;;;;;;3.7;3.3;;;;;;;;;;;;;
2023/07/21 00:42:40;;;;;;;4.9;3.4;;;;;;;;;;;;;
2023/07/21 00:45:05;;;;;;;4;2.8;;;;;;;;;;;;;
2023/07/21 00:47:30;;;;;;;4.4;3;;;;;;;;;;;;;
2023/07/21 00:49:56;;;;;;;3.4;3;;;;;;;;;;;;;
2023/07/21 00:52:21;;;;;;;3.9;3.1;;;;;;;;;;;;;
2023/07/21 00:54:47;;;;;;;4.6;3.1;;;;;;;;;;;;;
2023/07/21 00:57:11;;;;;;;3.4;3.1;;;;;;;;;;;;;
2023/07/21 00:59:40;;;;;;;4.7;3.1;;;;;;;;;;;;;
2023/07/21 01:02:05;;;;;;;3.8;3.1;;;;;;;;;;;;;
2023/07/21 01:04:31;;;;;;;6;3.3;;;;;;;;;;;;;
2023/07/21 01:06:56;;;;;;;6;3.5;;;;;;;;;;;;;
2023/07/21 01:12:01;;;;;;;4.2;3.2;;;;;;;;;;;;;
2023/07/21 01:14:26;;;;;;;4.1;3.3;;;;;;;;;;;;;
2023/07/21 01:16:51;;;;;;;3.8;3.4;;;;;;;;;;;;;
2023/07/21 01:19:17;;;;;;;5;3.6;;;;;;;;;;;;;
2023/07/21 01:21:43;;;;;;;5.9;3.4;;;;;;;;;;;;;
2023/07/21 01:24:07;;;;;;;4.4;3;;;;;;;;;;;;;
2023/07/21 01:26:35;;;;;;;4.1;3.1;;;;;;;;;;;;;
2023/07/21 01:29:10;;;;;;;6.1;3.3;;;;;;;;;;;;;
2023/07/21 01:31:35;;;;;;;3.4;2.7;;;;;;;;;;;;;
2023/07/21 01:33:59;;;;;;;4.8;3.6;;;;;;;;;;;;;
2023/07/21 01:36:25;;;;;;;4.8;3.1;;;;;;;;;;;;;
2023/07/21 01:38:51;;;;;;;6.6;3.3;;;;;;;;;;;;;
2023/07/21 01:43:41;;;;;;;5.4;3.5;;;;;;;;;;;;;
2023/07/21 01:46:07;;;;;;;5;3.4;;;;;;;;;;;;;
2023/07/21 01:48:33;;;;;;;5.1;3.6;;;;;;;;;;;;;
2023/07/21 01:50:58;;;;;;;5.5;3.6;;;;;;;;;;;;;
2023/07/21 01:53:24;;;;;;;4.9;3.7;;;;;;;;;;;;;
2023/07/21 01:55:49;;;;;;;3.5;3.2;;;;;;;;;;;;;
2023/07/21 01:58:19;;;;;;;5.5;3.9;;;;;;;;;;;;;
2023/07/21 02:00:46;;;;;;;4.6;3.6;;;;;;;;;;;;;
2023/07/21 02:03:11;;;;;;;4.1;3;;;;;;;;;;;;;
2023/07/21 02:05:36;;;;;;;5.8;3.2;;;;;;;;;;;;;
2023/07/21 02:08:05;;;;;;;5.8;3.4;;;;;;;;;;;;;
2023/07/21 02:10:30;;;;;;;3.9;3.3;;;;;;;;;;;;;
2023/07/21 02:12:56;;;;;;;4.5;3.2;;;;;;;;;;;;;
2023/07/21 02:15:21;;;;;;;4.1;3.5;;;;;;;;;;;;;
2023/07/21 02:17:48;;;;;;;3.7;3.2;;;;;;;;;;;;;
2023/07/21 02:20:14;;;;;;;4.3;3.2;;;;;;;;;;;;;
2023/07/21 02:22:43;;;;;;;6.4;3.8;;;;;;;;;;;;;
2023/07/21 02:25:06;;;;;;;4.7;3.3;;;;;;;;;;;;;
2023/07/21 02:27:31;;;;;;;4;3.6;;;;;;;;;;;;;
2023/07/21 02:30:04;;;;;;;5.1;3.6;;;;;;;;;;;;;
2023/07/21 02:32:29;;;;;;;6.1;3.6;;;;;;;;;;;;;
2023/07/21 02:34:56;;;;;;;5.7;4;;;;;;;;;;;;;
2023/07/21 02:37:21;;;;;;;4;3.1;;;;;;;;;;;;;
2023/07/21 02:39:48;;;;;;;3.8;3.3;;;;;;;;;;;;;
2023/07/21 02:42:13;;;;;;;4.5;3.3;;;;;;;;;;;;;
2023/07/21 02:44:38;;;;;;;6.8;3.5;;;;;;;;;;;;;
2023/07/21 02:47:03;;;;;;;4.5;3.5;;;;;;;;;;;;;
2023/07/21 02:49:30;;;;;;;3.7;3.4;;;;;;;;;;;;;
2023/07/21 02:51:55;;;;;;;4.2;3.6;;;;;;;;;;;;;
2023/07/21 02:54:21;;;;;;;4.3;3.2;;;;;;;;;;;;;
2023/07/21 02:56:46;;;;;;;3.8;3.1;;;;;;;;;;;;;
2023/07/21 02:59:11;;;;;;;5.8;3.7;;;;;;;;;;;;;
2023/07/21 03:01:36;;;;;;;4.6;3.7;;;;;;;;;;;;;
2023/07/21 03:04:04;;;;;;;5.3;3.4;;;;;;;;;;;;;
2023/07/21 03:06:33;;;;;;;5.4;3.6;;;;;;;;;;;;;
2023/07/21 03:08:56;;;;;;;4.5;3.3;;;;;;;;;;;;;
2023/07/21 03:11:22;;;;;;;7.7;3.7;;;;;;;;;;;;;
2023/07/21 03:13:47;;;;;;;3.9;3.5;;;;;;;;;;;;;
2023/07/21 03:16:13;;;;;;;4.3;3.5;;;;;;;;;;;;;
2023/07/21 03:18:39;;;;;;;5.5;3.4;;;;;;;;;;;;;
2023/07/21 03:21:04;;;;;;;5.5;3.6;;;;;;;;;;;;;
2023/07/21 03:23:29;;;;;;;5.7;3.9;;;;;;;;;;;;;
2023/07/21 03:25:55;;;;;;;4.4;3.3;;;;;;;;;;;;;
2023/07/21 03:28:21;;;;;;;4.2;3.6;;;;;;;;;;;;;
2023/07/21 03:30:46;;;;;;;4.8;3.4;;;;;;;;;;;;;
2023/07/21 03:33:12;;;;;;;4.3;3.5;;;;;;;;;;;;;
2023/07/21 03:35:37;;;;;;;4.3;3.6;;;;;;;;;;;;;
2023/07/21 03:38:02;;;;;;;5;3.3;;;;;;;;;;;;;
2023/07/21 03:40:28;;;;;;;3.9;3.5;;;;;;;;;;;;;
2023/07/21 03:42:55;;;;;;;5.4;3.4;;;;;;;;;;;;;
2023/07/21 03:45:21;;;;;;;4.6;3.6;;;;;;;;;;;;;
2023/07/21 03:47:48;;;;;;;3.8;3.2;;;;;;;;;;;;;
2023/07/21 03:50:13;;;;;;;5.7;3.7;;;;;;;;;;;;;
2023/07/21 03:52:41;;;;;;;4.2;3.3;;;;;;;;;;;;;
2023/07/21 03:55:06;;;;;;;4.7;3.8;;;;;;;;;;;;;
2023/07/21 03:57:35;;;;;;;3.7;3.3;;;;;;;;;;;;;
2023/07/21 04:00:58;;;;;;;3.8;3.4;;;;;;;;;;;;;
2023/07/21 04:03:28;;;;;;;6.1;3.6;;;;;;;17.19;100;933.0449;;;;
2023/07/21 04:05:53;;;;;;;4.9;3.6;;;;;;;17.1;100;933.0536;;;;
2023/07/21 04:08:24;;;;;;;7;3.6;;;;;;;17.24;100;932.9622;;;;
2023/07/21 04:10:55;;;;;;;5.4;3.5;;;;;;;17.13;100;933.0295;;;;
2023/07/21 04:13:27;;;;;;;4.5;3.4;;;;;;;17.26;100;932.9801;;;;
2023/07/21 04:16:01;;;;;;;3.7;3.2;;;;;;;17.42;100;932.9377;;;;
2023/07/21 04:18:25;;;;;;;5;3.7;;;;;;;17.34;100;932.9779;;;;
2023/07/21 04:20:54;;;;;;;4.8;3.6;;;;;;;17.31;100;933.0447;;;;
2023/07/21 04:23:23;;;;;;;5.3;3.6;;;;;;;17.21;100;933.0614;;;;
2023/07/21 04:25:48;;;;;;;5.8;3.8;;;;;;;17.07;100;932.9733;;;;
2023/07/21 04:28:17;;;;;;;5.8;3.2;;;;;;;17.07;100;933.0897;;;;
2023/07/21 04:30:42;;;;;;;4.4;3.4;;;;;;;17.18;100;933.0686;;;;
2023/07/21 04:33:11;;;;;;;5.4;3.5;;;;;;;17.13;100;933.065;;;;
2023/07/21 04:35:48;;;;;;;5.5;3.5;;;;;;;16.9;100;933.0701;;;;
2023/07/21 04:38:23;;;;;;;4.5;3.6;;;;;;;17.02;100;933.073;;;;
2023/07/21 04:40:48;;;;;;;4.8;3.5;;;;;;;17.18;100;933.0349;;;;
2023/07/21 04:43:13;;;;;;;4.7;3.5;;;;;;;17.24;100;933.0571;;;;
2023/07/21 04:45:39;;;;;;;3.8;3.4;;;;;;;17.43;100;933.038;;;;
2023/07/21 04:48:05;;;;;;;4.8;3;;;;;;;17.37;100;933.0304;;;;
2023/07/21 04:50:30;;;;;;;3.8;2.9;;;;;;;17.42;100;932.9368;;;;
2023/07/21 04:52:58;;;;;;;4.1;3.4;;;;;;;17.34;100;932.9796;;;;
2023/07/21 04:55:26;;;;;;;4.8;3.3;;;;;;;17.19;100;933.045;;;;
2023/07/21 04:57:49;;;;;;;5.6;3.4;;;;;;;17.45;100;932.9642;;;;
2023/07/21 05:00:23;;;;;;;3.7;3.2;;;;;;;17.62;100;932.9383;;;;
2023/07/21 05:02:49;;;;;;;4.7;3.5;;;;;;;17.41;100;932.9104;;;;
2023/07/21 05:05:12;;;;;;;4;3.5;;;;;;;17.57;100;932.8886;;;;
2023/07/21 05:13:13;;;;;;;4.1;3.3;;;;;;;17.62;100;932.9731;;;;
2023/07/21 05:15:42;;;;;;;4.4;3.8;;;;;;;17.68;100;932.9203;;;;
2023/07/21 05:18:11;;;;;;;3.4;3.1;;;;;;;17.93;100;932.8131;;;;
2023/07/21 05:20:36;;;;;;;4.2;3.4;;;;;;;18.05;100;932.8649;;;;
2023/07/21 05:23:06;;;;;;;4.6;3.3;;;;;;;17.95;100;932.8577;;;;
2023/07/21 05:25:36;;;;;;;5.9;3.3;;;;;;;18.01;100;932.8061;;;;
2023/07/21 05:28:06;;;;;;;3.9;2.9;;;;;;;18.13;100;932.8022;;;;
2023/07/21 05:30:31;;;;;;;4.1;3.5;;;;;;;18.24;99.8125;932.8276;;;;
2023/07/21 05:32:59;;;;;;;4.2;3.3;;;;;;;18.45;98.52246;932.817;;;;
2023/07/21 05:35:26;;;;;;;4.7;3.3;;;;;;;18.61;97.61621;932.9032;;;;
2023/07/21 05:37:50;;;;;;;4.8;3.3;;;;;;;18.85;97.41504;932.9009;;;;
2023/07/21 05:40:24;;;;;;;3.4;3;;;;;;;19;96.35254;932.9897;;;;
2023/07/21 05:42:55;;;;;;;5.2;3;;;;;;;19.34;94.62109;932.9118;;;;
2023/07/21 05:45:20;;;;;;;2.9;2.5;;;;;;;19.72;92.18457;932.8893;;;;
2023/07/21 05:47:51;;;;;;;3.5;2.3;;;;;;;19.6;90.64453;932.826;;;;
2023/07/21 05:50:24;;;;;;;4.3;2.6;;;;;;;19.57;92.23535;932.7784;;;;
2023/07/21 05:52:57;;;;;;;4.3;2.8;;;;;;;19.64;93.77832;932.8806;;;;
2023/07/21 05:55:25;;;;;;;4.1;2.8;;;;;;;20.3;91.02246;932.7587;;;;
2023/07/21 05:57:50;;;;;;;2.5;2.2;;;;;;;20.44;90.61816;932.747;;;;
2023/07/21 06:00:18;;;;;;;3.4;2.7;;;;;;;20.93;87.08398;932.7544;;;;
2023/07/21 06:02:42;;;;;;;3.1;2.5;;;;;;;21.11;83.45605;932.7153;;;;
2023/07/21 06:05:12;;;;;;;4.2;2.6;;;;;;;21.2;84.08203;932.6334;;;;
2023/07/21 06:07:42;;;;;;;3.7;2.5;;;;;;;22.03;81.03906;932.6934;;;;
2023/07/21 06:10:05;;;;;;;3.2;2.7;;;;;;;22.64;76.4668;932.7558;;;;
2023/07/21 06:12:33;;;;;;;3.7;2.1;;;;;;;22.96;74.18652;932.7744;;;;
2023/07/21 06:14:59;;;;;;;4.2;2.5;;;;;;;22.64;75.04785;932.74;;;;
2023/07/21 06:17:25;;;;;;;3.3;2.6;;;;;;;21.86;76.79004;932.6697;;;;
2023/07/21 06:19:48;;;;;;;5.2;2.8;;;;;;;20.84;80.55469;932.7703;;;;
2023/07/21 06:22:15;;;;;;;3.1;2.6;;;;;;;20.58;82.97168;932.7551;;;;
2023/07/21 06:24:40;;;;;;;3.5;2.7;;;;;;;20.86;82.20605;932.7589;;;;
2023/07/21 06:27:08;;;;;;;4.4;2.5;;;;;;;21.09;82.27148;932.7372;;;;
2023/07/21 06:29:33;;;;;;;5.2;3.1;;;;;;;21.08;80.85449;932.709;;;;
2023/07/21 06:31:59;;;;;;;3.2;2.4;;;;;;;20.89;80.91309;932.7919;;;;
2023/07/21 06:34:24;;;;;;;3.3;2.4;;;;;;;21.01;79.91602;932.7645;;;;
2023/07/21 06:36:51;;;;;;;4.8;2.9;;;;;;;20.78;79.57324;932.6743;;;;
2023/07/21 06:39:16;;;;;;;3.9;2.9;;;;;;;20.72;81.55957;932.7534;;;;
2023/07/21 06:41:43;;;;;;;3.4;2.9;;;;;;;20.61;82.39453;932.7161;;;;
2023/07/21 06:44:06;;;;;;;3;2.7;;;;;;;20.35;82.27441;932.7658;;;;
2023/07/21 06:46:31;;;;;;;4.2;2.9;;;;;;;20.12;83.99316;932.7498;;;;
2023/07/21 06:49:05;;;;;;;5.8;2.8;;;;;;;19.92;85.57617;932.8755;;;;
2023/07/21 06:51:35;;;;;;;5.3;2.7;;;;;;;19.74;86.81445;932.8699;;;;
2023/07/21 06:53:59;;;;;;;4.5;2.8;;;;;;;19.46;89.01855;932.8386;;;;
2023/07/21 06:56:30;;;;;;;4.4;2.8;;;;;;;19.39;89.84473;932.864;;;;
2023/07/21 06:58:55;;;;;;;4.1;2.9;;;;;;;19.41;91.86426;932.8262;;;;
2023/07/21 07:01:26;;;;;;;4.6;3.1;;;;;;;19.37;92.54395;932.8773;;;;
2023/07/21 07:03:55;;;;;;;5.3;3;;;;;;;19.08;95.14746;933.0497;;;;
2023/07/21 07:06:19;;;;;;;5.5;3.2;;;;;;;18.69;98.25098;933.0933;;;;
2023/07/21 07:08:46;;;;;;;4.7;3;;;;;;;18.52;99.75;932.9412;;;;
2023/07/21 07:11:11;;;;;;;6.3;3.4;;;;;;;18.55;100;932.8937;;;;
2023/07/21 07:13:39;;;;;;;5.7;3.5;;;;;;;18.47;100;932.9358;;;;
2023/07/21 07:16:11;;;;;;;3.7;3.3;;;;;;;18.46;100;932.885;;;;
2023/07/21 07:18:41;;;;;;;4.9;3.6;;;;;;;18.17;100;932.8994;;;;
2023/07/21 07:21:06;;;;;;;4.8;3.3;;;;;;;18.15;100;933.0669;;;;
2023/07/21 07:23:39;;;;;;;4.3;3.6;;;;;;;18.19;100;933.077;;;;
2023/07/21 07:26:05;;;;;;;5.4;3.9;;;;;;;18.18;100;933.0547;;;;
2023/07/21 07:28:32;;;;;;;5.4;3.4;;;;;;;18.16;100;933.1181;;;;
2023/07/21 07:30:57;;;;;;;4.8;3.8;;;;;;;18.09;100;933.1578;;;;
2023/07/21 07:33:27;;;;;;;5.5;3.9;;;;;;;18.19;100;933.2285;;;;
2023/07/21 07:35:52;;;;;;;5.5;3.9;;;;;;;18.23;100;933.3597;;;;
2023/07/21 07:38:23;;;;;;;6.8;4.4;;;;;;;18.4;100;933.4032;;;;
2023/07/21 07:40:52;;;;;;;6.4;3.9;;;;;;;18.44;100;933.4881;;;;
2023/07/21 07:43:23;;;;;;;7.2;4;;;;;;;18.53;100;933.5201;;;;
2023/07/21 07:45:49;;;;;;;5;3.9;;;;;;;18.4;100;933.6403;;;;
2023/07/21 07:48:22;;;;;;;5.9;3.8;;;;;;;18.36;100;933.6624;;;;
2023/07/21 07:50:51;;;;;;;5.7;3.5;;;;;;;18.44;100;933.8072;;;;
2023/07/21 07:53:14;;;;;;;4.6;4.2;;;;;;;18.61;100;933.838;;;;
2023/07/21 07:55:41;;;;;;;6.5;3.9;;;;;;;18.72;100;933.883;;;;
2023/07/21 07:58:06;;;;;;;3.9;3.2;;;;;;;18.84;100;933.8054;;;;
2023/07/21 08:00:36;;;;;;;4.8;3.9;;;;;;;18.94;100;933.7709;;;;
2023/07/21 08:03:00;;;;;;;5.6;3.6;;;;;;;18.89;100;933.7322;;;;
2023/07/21 08:05:25;;;;;;;4.4;3.5;;;;;;;18.98;100;933.7545;;;;
2023/07/21 08:07:58;;;;;;;4.1;3.5;;;;;;;19.08;100;933.8486;;;;
2023/07/21 08:10:20;;;;;;;4.8;3.5;;;;;;;19.24;100;933.8965;;;;
2023/07/21 08:12:45;;;;;;;5.4;3.6;;;;;;;19.26;99.89258;933.9905;;;;
2023/07/21 08:15:15;;;;;;;4.2;3.1;;;;;;;19.42;98.6709;934.0096;;;;
2023/07/21 08:17:40;;;;;;;3.7;2.8;;;;;;;19.43;97.0293;934.1476;;;;
2023/07/21 08:20:08;;;;;;;4.8;3.3;;;;;;;19.46;97.09375;934.1872;;;;
2023/07/21 08:22:32;;;;;;;4.8;3;;;;;;;19.5;96.5332;934.1286;;;;
2023/07/21 08:25:01;;;;;;;3.9;3.2;;;;;;;19.32;97.36719;934.1637;;;;
2023/07/21 08:27:29;;;;;;;5;3.2;;;;;;;19.25;97.94727;934.2238;;;;
2023/07/21 08:29:54;;;;;;;4.6;3.2;;;;;;;19.14;98.66602;934.1744;;;;
2023/07/21 08:32:22;;;;;;;4.9;3.7;;;;;;;18.97;100;934.1283;;;;
2023/07/21 08:34:47;;;;;;;3.7;3.2;;;;;;;19.15;100;934.2516;;;;
2023/07/21 08:37:20;;;;;;;5.4;3.6;;;;;;;19.28;98.7334;934.2164;;;;
2023/07/21 08:39:47;;;;;;;3.8;3.3;;;;;;;19.25;96.95508;934.2143;;;;
2023/07/21 08:42:12;;;;;;;4.1;3.1;;;;;;;19.18;97.58008;934.2742;;;;
2023/07/21 08:44:41;;;;;;;4;3.3;;;;;;;19.33;96.96094;934.2336;;;;
2023/07/21 08:47:13;;;;;;;3.7;3.3;;;;;;;19.44;96.46094;934.2185;;;;
2023/07/21 08:49:41;;;;;;;4;3.3;;;;;;;19.44;96.53027;934.212;;;;
2023/07/21 08:52:06;;;;;;;5.4;3.4;;;;;;;19.08;99.21094;934.1457;;;;
2023/07/21 08:54:34;;;;;;;4.5;3.6;;;;;;;19.26;99.68262;934.1817;;;;
2023/07/21 08:56:59;;;;;;;4.4;3.2;;;;;;;19.45;99.67871;934.2286;;;;
2023/07/21 08:59:28;;;;;;;5.1;3.3;;;;;;;19.64;99.37207;934.2265;;;;
2023/07/21 09:02:01;;;;;;;4.6;3.4;;;;;;;19.8;98.12793;934.1347;;;;
2023/07/21 09:04:26;;;;;;;4.7;3.3;;;;;;;19.94;95.85938;934.1096;;;;
2023/07/21 09:06:58;;;;;;;4;3.2;;;;;;;19.84;94.31934;934.1428;;;;
2023/07/21 09:09:29;;;;;;;4.6;3.3;;;;;;;19.79;95.19629;934.1334;;;;
2023/07/21 09:11:55;;;;;;;4.4;3.2;;;;;;;19.74;94.4873;934.1132;;;;
2023/07/21 09:14:20;;;;;;;4;3.6;;;;;;;19.44;95.13184;934.1078;;;;
2023/07/21 09:16:47;;;;;;;5.6;3.8;;;;;;;19.43;95.63086;934.0597;;;;
2023/07/21 09:19:11;;;;;;;4.9;3.8;;;;;;;19.39;95.06641;933.8489;;;;
2023/07/21 09:21:40;;;;;;;4.3;2.9;;;;;;;19.19;96.0459;933.6596;;;;
2023/07/21 09:24:08;;;;;;;3.6;3;;;;;;;19.3;96.78027;933.6031;;;;
2023/07/21 09:26:36;;;;;;;3.6;3.2;;;;;;;19.35;96.86035;933.4885;;;;
2023/07/21 09:29:01;;;;;;;3.6;2.9;;;;;;;19.37;95.56152;933.3876;;;;
2023/07/21 09:31:32;;;;;;;5;3.3;;;;;;;19.02;99.25684;933.5701;;;;
2023/07/21 09:33:56;;;;;;;3.8;2.9;;;;;;;19.1;98.03906;933.6495;;;;
2023/07/21 09:36:22;;;;;;;5.1;3.3;;;;;;;19.24;97.3623;933.5864;;;;
2023/07/21 09:38:50;;;;;;;4.2;3.1;;;;;;;19.37;95.81738;933.6606;;;;
2023/07/21 09:41:16;;;;;;;3.8;2.9;;;;;;;19.39;95.90332;933.6883;;;;
2023/07/21 09:43:46;;;;;;;3.3;2.9;;;;;;;19.58;95.74609;933.7579;;;;
2023/07/21 09:46:15;;;;;;;4.9;3;;;;;;;19.48;95.56152;933.7261;;;;
2023/07/21 09:48:41;;;;;;;6.4;3.1;;;;;;;19.45;95.07617;933.7603;;;;
2023/07/21 09:51:09;;;;;;;4.5;2.8;;;;;;;19.37;95.0957;933.7672;;;;
2023/07/21 09:53:33;;;;;;;3.9;2.8;;;;;;;19.33;93.87402;933.7781;;;;
2023/07/21 09:56:03;;;;;;;5;2.8;;;;;;;19.54;95.17871;933.8077;;;;
2023/07/21 09:58:28;;;;;;;3.7;2.9;;;;;;;19.56;94.44824;933.8013;;;;
2023/07/21 10:00:55;;;;;;;3.2;2.4;;;;;;;19.44;95.19043;933.7703;;;;
2023/07/21 10:03:20;;;;;;;4.7;2.6;;;;;;;19.17;97.05371;933.7006;;;;
2023/07/21 10:05:48;;;;;;;5.4;3.3;;;;;;;19.03;98.86328;933.7873;;;;
2023/07/21 10:08:13;;;;;;;4.5;3.2;;;;;;;18.91;100;933.8519;;;;
2023/07/21 10:10:41;;;;;;;5.1;3.4;;;;;;;18.99;100;933.8358;;;;
2023/07/21 10:13:07;;;;;;;4.9;3.5;;;;;;;19.05;98.68066;933.7415;;;;
2023/07/21 10:15:40;;;;;;;3.8;3.2;;;;;;;19.18;98.49023;933.6558;;;;
2023/07/21 10:18:10;;;;;;;3.9;3.1;;;;;;;19.41;98.50391;933.6312;;;;
2023/07/21 10:20:33;;;;;;;4;3.1;;;;;;;19.85;96.28125;933.5558;;;;
2023/07/21 10:22:58;;;;;;;3.8;2.8;;;;;;;20.43;92.70898;933.4791;;;;
2023/07/21 10:25:23;;;;;;;4.2;3;;;;;;;20.4;88.1582;933.5767;;;;
2023/07/21 10:27:51;;;;;;;3.3;2.8;;;;;;;21.04;86.68262;933.5804;;;;
2023/07/21 10:30:16;;;;;;;2.8;2.4;;;;;;;21.24;82.93066;933.5779;;;;
2023/07/21 10:32:41;;;;;;;2.7;2.1;;;;;;;21.59;81.04102;933.5266;;;;
2023/07/21 10:35:10;;;;;;;2.6;2.3;;;;;;;21.46;81.52051;933.5424;;;;
2023/07/21 10:37:35;;;;;;;4.3;2.9;;;;;;;21.46;77.43555;933.491;;;;
2023/07/21 10:40:02;;;;;;;3.9;2.3;;;;;;;21.55;79.36133;933.4597;;;;
2023/07/21 10:42:26;;;;;;;2.6;2.3;;;;;;;21.48;78.10547;933.5187;;;;
2023/07/21 10:44:52;;;;;;;3.4;2.8;;;;;;;21.51;77.64355;933.5294;;;;
2023/07/21 10:47:21;;;;;;;3.9;2.6;;;;;;;21.63;77.34863;933.4391;;;;
2023/07/21 10:49:46;;;;;;;3;2.4;;;;;;;21.81;77.12012;933.5186;;;;
2023/07/21 10:52:11;;;;;;;2.6;2.3;;;;;;;21.95;74.25293;933.5045;;;;
2023/07/21 10:54:40;;;;;;;3.4;2.6;;;;;;;21.93;75.86328;933.4595;;;;
2023/07/21 10:57:05;;;;;;;3.6;2.5;;;;;;;21.94;77.73145;933.4216;;;;
2023/07/21 10:59:36;;;;;;;2.9;2.3;;;;;;;21.94;75.38672;933.4453;;;;
2023/07/21 11:02:02;;;;;;;4.7;2.4;;;;;;;21.84;73.45996;933.5595;;;;
2023/07/21 11:04:29;;;;;;;4.7;2.5;;;;;;;22.02;77.38086;933.5917;;;;
2023/07/21 11:06:57;;;;;;;2.6;2.4;;;;;;;21.73;76.06543;933.5193;;;;
2023/07/21 11:09:33;;;;;;;4.2;2.4;;;;;;;21.24;74.57813;933.6655;;;;
2023/07/21 11:11:57;;;;;;;4.4;2.9;;;;;;;21.36;78.07324;933.66;;;;
2023/07/21 11:14:23;;;;;;;4.9;2.8;;;;;;;21.41;80.25879;933.6322;;;;
2023/07/21 11:16:53;;;;;;;3;2.6;;;;;;;21.4;77.95313;933.587;;;;
2023/07/21 11:19:25;;;;;;;3.4;2.5;;;;;;;21.45;77.18652;933.6042;;;;
2023/07/21 11:21:52;;;;;;;3.3;2.4;;;;;;;21.66;76.25391;933.5131;;;;
2023/07/21 11:24:20;;;;;;;3.9;2.4;;;;;;;22.14;77.49707;933.4405;;;;
2023/07/21 11:26:48;;;;;;;3.1;2.4;;;;;;;22.36;70.93066;933.4296;;;;
2023/07/21 11:29:15;;;;;;;3.4;2.5;;;;;;;22.48;76.04102;933.4297;;;;
2023/07/21 11:31:38;;;;;;;3.6;2.5;;;;;;;22.98;73.35449;933.3535;;;;
2023/07/21 11:34:03;;;;;;;2.8;2.2;;;;;;;22.64;67.93555;933.3098;;;;
2023/07/21 11:36:29;;;;;;;3.4;2.7;;;;;;;22.54;68.91797;933.2556;;;;
2023/07/21 11:38:57;;;;;;;3.4;2.5;;;;;;;22.68;69.84277;933.3058;;;;
2023/07/21 11:41:21;;;;;;;3;2.4;;;;;;;22.92;70.79492;933.3862;;;;
2023/07/21 11:43:47;;;;;;;3.2;2.7;;;;;;;23.04;69.51172;933.3714;;;;
2023/07/21 11:46:12;;;;;;;2.9;2.4;;;;;;;22.93;72.66406;933.373;;;;
2023/07/21 11:48:41;;;;;;;4.5;2.4;;;;;;;23.13;65.07324;933.3214;;;;
2023/07/21 11:51:07;;;;;;;3;2.2;;;;;;;23.69;64.75391;933.4095;;;;
2023/07/21 11:53:35;;;;;;;4.8;2.3;;;;;;;24.18;68.58301;933.349;;;;
2023/07/21 11:56:00;;;;;;;2.9;2.3;;;;;;;24.75;60.28516;933.2467;;;;
2023/07/21 11:58:28;;;;;;;2.7;2.3;;;;;;;25.29;57.39453;933.2324;;;;
2023/07/21 12:00:53;;;;;;;3.4;2.3;;;;;;;25.71;55.64063;933.2189;;;;
2023/07/21 12:03:25;;;;;;;2.7;2.1;;;;;;;26.27;54.4082;933.2762;;;;
2023/07/21 12:05:53;;;;;;;3;2.2;;;;;;;26.31;55.63281;933.2859;;;;
2023/07/21 12:08:18;;;;;;;3.4;1.9;;;;;;;26.37;54.76367;933.2545;;;;
2023/07/21 12:10:48;;;;;;;2.2;2;;;;;;;26.16;58.41797;933.1973;;;;
2023/07/21 12:13:13;;;;;;;2.4;2;;;;;;;25.95;63.2373;933.1874;;;;
2023/07/21 12:15:47;;;;;;;3;2.2;;;;;;;26.06;58.06055;933.1293;;;;
2023/07/21 12:18:15;;;;;;;3.3;1.9;;;;;;;25.02;60.94824;933.1997;;;;
2023/07/21 12:20:41;;;;;;;2.5;2.3;;;;;;;25.09;61.54688;933.1833;;;;
2023/07/21 12:23:11;;;;;;;2.7;2.1;;;;;;;24.71;58.71289;933.123;;;;
2023/07/21 12:25:43;;;;;;;2.6;2.1;;;;;;;24.06;61.58203;933.1797;;;;
2023/07/21 12:28:12;;;;;;;2.8;2.2;;;;;;;23.66;62.78418;933.1892;;;;
2023/07/21 12:30:37;;;;;;;3.8;2.2;;;;;;;23.81;61.72461;933.197;;;;
2023/07/21 12:33:03;;;;;;;3.2;2.2;;;;;;;23.83;64.16211;933.1933;;;;
2023/07/21 12:35:31;;;;;;;3.9;2.3;;;;;;;23.36;63.72949;933.2338;;;;
2023/07/21 12:37:57;;;;;;;3.8;2.3;;;;;;;23.7;66.60254;933.1719;;;;
2023/07/21 12:40:22;;;;;;;12.5;3.3;;;;;;;23.87;68.04102;933.1856;;;;
2023/07/21 12:42:52;;;;;;;3.9;2.5;;;;;;;24.09;65.02344;933.1342;;;;
2023/07/21 12:45:19;;;;;;;3.1;2.3;;;;;;;23.87;64.8623;933.1912;;;;
2023/07/21 12:47:52;;;;;;;3.6;2.2;;;;;;;24.06;65.16113;933.2112;;;;
2023/07/21 12:50:26;;;;;;;19.1;4.6;;;;;;;23.93;67.61426;933.2539;;;;
2023/07/21 12:52:56;;;;;;;9.5;3;;;;;;;23.93;65.55469;933.3173;;;;
2023/07/21 12:55:22;;;;;;;2.7;2.1;;;;;;;23.91;62.82031;933.2852;;;;
2023/07/21 12:57:55;;;;;;;2.9;2.1;;;;;;;24.32;64.98633;933.2402;;;;
2023/07/21 13:00:21;;;;;;;2.3;2.1;;;;;;;24.89;61.22461;933.233;;;;
2023/07/21 13:02:54;;;;;;;2.8;2.2;;;;;;;25.19;58.57422;933.1569;;;;
2023/07/21 13:05:21;;;;;;;2.4;1.7;;;;;;;25.25;56.63379;933.1942;;;;
2023/07/21 13:07:51;;;;;;;3;2.2;;;;;;;24.94;57.43164;933.2155;;;;
2023/07/21 13:10:23;;;;;;;2.5;1.9;;;;;;;25.07;58.94629;933.1277;;;;
2023/07/21 13:12:49;;;;;;;2.2;2;;;;;;;24.74;57.87891;933.0059;;;;
2023/07/21 13:15:19;;;;;;;2.6;2;;;;;;;25.15;57.02246;932.8337;;;;
2023/07/21 13:17:48;;;;;;;2.6;2;;;;;;;25.31;56.77246;932.7067;;;;
2023/07/21 13:20:20;;;;;;;2.1;1.9;;;;;;;25.42;59.38379;932.6354;;;;
2023/07/21 13:22:49;;;;;;;3.5;2.2;;;;;;;25.38;60.19434;932.7036;;;;
2023/07/21 13:25:15;;;;;;;2.1;1.8;;;;;;;25.07;57.42578;932.6605;;;;
2023/07/21 13:27:45;;;;;;;2.2;1.6;;;;;;;25.44;58.47656;932.5162;;;;
2023/07/21 13:30:15;;;;;;;2;1.8;;;;;;;26.03;60.4707;932.4519;;;;
2023/07/21 13:32:40;;;;;;;2.3;1.9;;;;;;;26.43;55.95508;932.48;;;;
2023/07/21 13:35:12;;;;;;;2.1;1.9;;;;;;;26.36;53.63867;932.4988;;;;
2023/07/21 13:37:43;;;;;;;2.4;1.9;;;;;;;25.97;56.47656;932.5136;;;;
2023/07/21 13:40:17;;;;;;;3.4;1.9;;;;;;;25.36;56.67188;932.4891;;;;
2023/07/21 13:42:47;;;;;;;2.8;1.9;;;;;;;25.26;58.1582;932.3753;;;;
2023/07/21 13:45:12;;;;;;;3.6;2;;;;;;;24.61;58.90918;932.3445;;;;
2023/07/21 13:47:44;;;;;;;2;1.8;;;;;;;24.5;57.83594;932.32;;;;
2023/07/21 13:50:16;;;;;;;2.6;2;;;;;;;24.21;58.56348;932.2841;;;;
2023/07/21 13:52:41;;;;;;;2.7;1.7;;;;;;;24.18;59.00781;932.2783;;;;
2023/07/21 13:55:13;;;;;;;3.2;2;;;;;;;24.57;59.27148;932.3055;;;;
2023/07/21 13:57:38;;;;;;;2.4;1.9;;;;;;;24.53;55.6582;932.3046;;;;
2023/07/21 14:00:05;;;;;;;3.1;1.8;;;;;;;24.36;59.26758;932.1903;;;;
2023/07/21 14:02:35;;;;;;;1.7;1.6;;;;;;;24.33;54.16016;932.1769;;;;
2023/07/21 14:05:00;;;;;;;2.4;1.5;;;;;;;24.41;54.21777;932.2081;;;;
2023/07/21 14:07:32;;;;;;;2.7;1.9;;;;;;;24.43;56.95508;932.164;;;;
2023/07/21 14:10:01;;;;;;;2;1.7;;;;;;;24.81;55.5752;932.051;;;;
2023/07/21 14:12:26;;;;;;;3;1.9;;;;;;;25.2;54.07813;932.1269;;;;
2023/07/21 14:15:12;;;;;;;2;1.8;;;;;;;25.46;55.16016;932.1155;;;;
2023/07/21 14:17:38;;;;;;;2.7;1.7;;;;;;;25.42;55.6875;932.1756;;;;
2023/07/21 14:20:16;;;;;;;1.8;1.5;;;;;;;25.22;54.69336;932.1495;;;;
2023/07/21 14:22:38;;;;;;;4.2;1.8;;;;;;;25.01;54.92871;932.1346;;;;
2023/07/21 14:25:11;;;;;;;2.6;1.9;;;;;;;25.23;58.58008;932.2046;;;;
2023/07/21 14:27:41;;;;;;;4.1;1.8;;;;;;;25.26;55.72461;932.2087;;;;
2023/07/21 14:30:14;;;;;;;1.8;1.5;;;;;;;25.33;53.23145;932.2245;;;;
2023/07/21 14:32:47;;;;;;;2.3;2.1;;;;;;;25.4;53.90137;932.1774;;;;
2023/07/21 14:35:20;;;;;;;2.4;1.7;;;;;;;25.4;54.66895;932.1866;;;;
2023/07/21 14:37:45;;;;;;;2.1;1.8;;;;;;;25.6;54.74121;932.1473;;;;
2023/07/21 14:40:17;;;;;;;3.8;1.9;;;;;;;25.72;53.65625;932.1247;;;;
2023/07/21 14:42:41;;;;;;;2.8;2.1;;;;;;;25.71;53.67871;932.0845;;;;
2023/07/21 14:45:16;;;;;;;2.3;1.9;;;;;;;25.78;54.4082;932.1309;;;;
2023/07/21 14:47:41;;;;;;;2.7;2.1;;;;;;;25.88;54.50195;932.1483;;;;
2023/07/21 14:50:11;;;;;;;2.1;1.9;;;;;;;25.5;52.05859;932.1559;;;;
2023/07/21 14:52:36;;;;;;;2.3;1.7;;;;;;;25.51;53.67871;932.0927;;;;
2023/07/21 14:55:06;;;;;;;2.6;1.8;;;;;;;25.56;53.68359;932.0952;;;;
2023/07/21 14:57:28;;;;;;;1.7;1.6;;;;;;;25.47;57.7373;932.1224;;;;
2023/07/21 14:59:57;;;;;;;2.8;1.8;;;;;;;25.45;54.61621;932.1888;;;;
2023/07/21 15:02:22;;;;;;;2.3;1.7;;;;;;;25.57;55.56445;932.1997;;;;
2023/07/21 15:04:48;;;;;;;2;1.8;;;;;;;25.73;54.75488;932.2109;;;;
2023/07/21 15:07:13;;;;;;;3.2;1.8;;;;;;;25.74;56.09277;932.2205;;;;
2023/07/21 15:09:40;;;;;;;2.2;1.7;;;;;;;25.86;53.84961;932.2338;;;;
2023/07/21 15:12:04;;;;;;;4.2;2.1;;;;;;;25.76;55.50391;932.2629;;;;
2023/07/21 15:14:33;;;;;;;2.3;1.8;;;;;;;25.8;55.08398;932.3304;;;;
2023/07/21 15:16:57;;;;;;;3.3;1.8;;;;;;;25.41;57.1377;932.3183;;;;
2023/07/21 15:19:27;;;;;;;2.7;2.1;;;;;;;25.34;57.09473;932.2699;;;;
2023/07/21 15:21:52;;;;;;;2.1;1.8;;;;;;;25.18;57.66406;932.2548;;;;
2023/07/21 15:24:21;;;;;;;2.3;2.1;;;;;;;25.05;61.15234;932.3685;;;;
2023/07/21 15:26:46;;;;;;;2.9;2.2;;;;;;;24.52;62.50586;932.4319;;;;
2023/07/21 15:30:09;;;;;;;2.5;2.3;;;;;;;24.38;64.70215;932.4545;;;;
2023/07/21 15:32:18;;;;;;;2.8;2.2;;;;;;;24.38;62.02734;932.5245;;;;
2023/07/21 15:34:43;;;;;;;2.3;2;;;;;;;24.07;62.56055;932.5314;;;;
2023/07/21 15:37:16;;;;;;;2.4;1.8;;;;;;;23.91;62.71484;932.5945;;;;
2023/07/21 15:39:45;;;;;;;2.3;2;;;;;;;23.92;63.44531;932.6203;;;;
2023/07/21 15:42:15;;;;;;;2.5;2.1;;;;;;;23.89;62.14648;932.6583;;;;
2023/07/21 15:44:46;;;;;;;2.3;2.1;;;;;;;23.93;61.1875;932.5203;;;;
2023/07/21 15:47:11;;;;;;;2.7;1.8;;;;;;;23.83;63.02051;932.6923;;;;
2023/07/21 15:49:36;;;;;;;3.4;1.9;;;;;;;23.71;63.49805;932.6713;;;;
2023/07/21 15:52:07;;;;;;;3.1;1.8;;;;;;;23.71;62.47461;932.7128;;;;
2023/07/21 15:54:37;;;;;;;2.6;2.1;;;;;;;23.46;61.4873;932.7626;;;;
2023/07/21 15:57:02;;;;;;;2.3;1.8;;;;;;;23.44;61.29688;932.8092;;;;
2023/07/21 15:59:30;;;;;;;2;1.8;;;;;;;23.48;62.24121;932.7919;;;;
2023/07/21 16:01:57;;;;;;;2;1.7;;;;;;;23.45;62.37891;932.7527;;;;